Time;durP1;ratioP1;P1;durP2;ratioP2;P2;SDS_P1;SDS_P2;PMS_P1;PMS_P2;Temp;Humidity;BMP_temperature;BMP_pressure;BME280_temperature;BME280_humidity;BME280_pressure;Samples;Min_cycle;Max_cycle;Signal;HPM_P1;HPM_P2
2022/10/02 00:02:11;;;;;;;14.80;2.30;;;10.50;99.90;;;;;;5061130;28;19920;-60
2022/10/02 00:05:01;;;;;;;13.65;2.38;;;10.50;99.90;;;;;;5068973;28;20505;-59
2022/10/02 00:07:43;;;;;;;14.30;2.50;;;12.20;99.90;;;;;;5081363;28;20178;-59
2022/10/02 00:10:25;;;;;;;12.10;2.30;;;11.00;99.90;;;;;;5080581;28;20052;-59
2022/10/02 00:12:54;;;;;;;;;;;10.50;99.90;;;;;;5081023;28;20123;-59
2022/10/02 00:15:28;;;;;;;13.75;3.15;;;10.50;99.90;;;;;;5081119;28;19928;-59
2022/10/02 00:18:05;;;;;;;14.90;3.45;;;11.00;99.90;;;;;;5081387;28;20125;-59
2022/10/02 00:20:59;;;;;;;14.52;2.95;;;10.80;99.90;;;;;;5081741;28;20036;-59
2022/10/02 00:23:39;;;;;;;14.18;3.22;;;10.50;99.90;;;;;;5078347;28;20053;-59
2022/10/02 00:26:22;;;;;;;11.48;3.70;;;12.10;99.90;;;;;;5081447;28;20040;-59
2022/10/02 00:29:01;;;;;;;12.98;3.33;;;12.20;99.90;;;;;;5081211;28;20666;-58
2022/10/02 00:32:00;;;;;;;17.65;3.47;;;12.10;99.90;;;;;;5080473;28;20040;-58
2022/10/02 00:34:53;;;;;;;18.65;4.40;;;11.70;99.90;;;;;;5081329;28;20044;-58
2022/10/02 00:37:41;;;;;;;18.48;4.10;;;11.30;99.90;;;;;;5081007;28;20052;-58
2022/10/02 00:40:38;;;;;;;20.10;5.53;;;10.50;99.90;;;;;;5079848;28;20088;-58
2022/10/02 00:43:10;;;;;;;14.95;3.78;;;12.00;99.90;;;;;;5080978;28;20242;-58
2022/10/02 00:45:54;;;;;;;13.55;3.80;;;10.50;99.90;;;;;;5080571;28;20533;-58
2022/10/02 00:48:22;;;;;;;17.27;4.20;;;12.00;99.90;;;;;;5080433;28;20051;-58
2022/10/02 00:51:26;;;;;;;18.58;3.97;;;11.40;99.90;;;;;;5081044;28;20120;-58
2022/10/02 00:54:23;;;;;;;15.40;4.07;;;11.90;99.90;;;;;;5079673;28;20048;-58
2022/10/02 00:56:56;;;;;;;12.15;4.10;;;10.60;99.90;;;;;;5078930;28;20060;-58
2022/10/02 00:59:29;;;;;;;20.00;4.60;;;11.60;99.90;;;;;;5072813;28;20063;-58
2022/10/02 01:02:06;;;;;;;17.55;4.57;;;11.40;99.90;;;;;;5059936;28;20076;-58
2022/10/02 01:04:35;;;;;;;14.45;4.60;;;11.10;99.90;;;;;;5060606;28;20044;-58
2022/10/02 01:07:05;;;;;;;24.02;6.07;;;10.40;99.90;;;;;;5060123;28;20080;-59
2022/10/02 01:09:32;;;;;;;21.00;5.25;;;11.70;99.90;;;;;;5059714;28;20056;-57
2022/10/02 01:11:59;;;;;;;15.15;4.10;;;10.30;99.90;;;;;;5060737;28;20091;-58
2022/10/02 01:14:35;;;;;;;18.98;4.32;;;11.70;99.90;;;;;;5059570;28;20033;-59
2022/10/02 01:17:01;;;;;;;21.17;5.18;;;10.10;99.90;;;;;;5060521;28;20116;-58
2022/10/02 01:19:38;;;;;;;20.13;4.75;;;11.30;99.90;;;;;;5059744;28;20055;-58
2022/10/02 01:22:22;;;;;;;18.70;4.78;;;11.30;99.90;;;;;;5060261;28;20055;-58
2022/10/02 01:24:59;;;;;;;24.23;6.07;;;10.80;99.90;;;;;;5060495;28;20120;-58
2022/10/02 01:27:25;;;;;;;16.80;5.65;;;10.30;99.90;;;;;;5059357;28;20059;-59
2022/10/02 01:30:03;;;;;;;25.48;5.75;;;11.50;99.90;;;;;;5058749;28;20072;-58
2022/10/02 01:32:29;;;;;;;21.83;5.00;;;11.30;99.90;;;;;;5058040;28;20180;-58
2022/10/02 01:34:56;;;;;;;20.15;5.07;;;11.50;99.90;;;;;;5060058;28;20105;-58
2022/10/02 01:37:27;;;;;;;20.20;5.25;;;10.90;99.90;;;;;;5059650;28;20053;-58
2022/10/02 01:39:54;;;;;;;24.63;6.50;;;10.10;99.90;;;;;;5064556;28;20054;-58
2022/10/02 01:42:20;;;;;;;35.63;7.70;;;10.20;99.90;;;;;;5080048;28;20048;-58
2022/10/02 01:44:47;;;;;;;20.45;5.43;;;9.90;99.90;;;;;;5079236;28;20066;-58
2022/10/02 01:47:27;;;;;;;27.50;6.22;;;10.80;99.90;;;;;;5079931;28;20071;-59
2022/10/02 01:50:15;;;;;;;15.52;4.57;;;10.60;99.90;;;;;;5079498;28;20361;-58
2022/10/02 01:53:16;;;;;;;15.55;4.68;;;10.00;99.90;;;;;;5078925;28;20041;-58
2022/10/02 01:55:55;;;;;;;20.02;4.60;;;10.00;99.90;;;;;;5079906;28;20076;-58
2022/10/02 01:58:50;;;;;;;13.18;4.47;;;9.90;99.90;;;;;;5079193;28;20071;-58
2022/10/02 02:01:24;;;;;;;18.52;4.60;;;10.00;99.90;;;;;;5058150;28;20052;-58
2022/10/02 02:04:18;;;;;;;13.75;4.13;;;11.10;99.90;;;;;;5057598;28;20045;-58
2022/10/02 02:06:55;;;;;;;20.65;4.03;;;10.40;99.90;;;;;;5057468;28;20809;-58
2022/10/02 02:09:28;;;;;;;26.02;4.13;;;10.90;99.90;;;;;;5059021;28;20066;-58
2022/10/02 02:12:10;;;;;;;24.30;4.50;;;9.90;99.90;;;;;;5059560;28;20507;-58
2022/10/02 02:14:46;;;;;;;17.65;3.95;;;10.40;99.90;;;;;;5057156;28;20055;-58
2022/10/02 02:17:22;;;;;;;17.33;4.10;;;10.70;99.90;;;;;;5059602;28;20468;-58
2022/10/02 02:19:58;;;;;;;14.68;3.75;;;10.90;99.90;;;;;;5058997;28;20045;-58
2022/10/02 02:22:28;;;;;;;16.48;3.78;;;10.00;99.90;;;;;;5058721;28;20041;-58
2022/10/02 02:25:02;;;;;;;18.33;4.13;;;11.30;99.90;;;;;;5059269;28;20068;-58
2022/10/02 02:27:32;;;;;;;20.00;3.72;;;10.90;99.90;;;;;;5058397;28;20091;-58
2022/10/02 02:30:04;;;;;;;23.05;4.10;;;11.30;99.90;;;;;;5059498;28;20045;-59
2022/10/02 02:32:33;;;;;;;19.73;4.07;;;11.10;99.90;;;;;;5058682;28;20084;-58
2022/10/02 02:35:23;;;;;;;18.15;3.72;;;11.40;99.90;;;;;;5058903;28;20075;-58
2022/10/02 02:37:54;;;;;;;17.40;3.35;;;11.30;99.90;;;;;;5055671;28;20049;-58
2022/10/02 02:40:24;;;;;;;19.77;3.95;;;11.30;99.90;;;;;;5067371;28;20048;-59
2022/10/02 02:43:01;;;;;;;18.02;3.50;;;11.40;99.90;;;;;;5077947;28;20040;-58
2022/10/02 02:45:40;;;;;;;19.63;4.20;;;10.60;99.90;;;;;;5079113;28;20084;-58
2022/10/02 02:48:12;;;;;;;17.25;3.83;;;11.50;99.90;;;;;;5078561;28;20496;-58
2022/10/02 02:50:44;;;;;;;17.98;4.40;;;10.40;99.90;;;;;;5079298;28;20045;-58
2022/10/02 02:53:13;;;;;;;22.55;4.90;;;11.60;99.90;;;;;;5078443;28;20041;-58
2022/10/02 02:55:46;;;;;;;21.73;3.83;;;10.40;99.90;;;;;;5079172;28;20154;-58
2022/10/02 02:58:21;;;;;;;13.32;3.92;;;11.30;99.90;;;;;;5078412;28;20076;-58
2022/10/02 03:00:47;;;;;;;17.65;3.50;;;10.60;99.90;;;;;;5058737;28;20504;-58
2022/10/02 03:03:12;;;;;;;15.68;3.70;;;11.50;99.90;;;;;;5058860;28;20055;-58
2022/10/02 03:05:43;;;;;;;14.02;3.25;;;11.60;99.90;;;;;;5058117;28;20079;-58
2022/10/02 03:08:19;;;;;;;11.88;2.90;;;11.70;99.90;;;;;;5058787;28;20041;-58
2022/10/02 03:11:00;;;;;;;14.13;3.58;;;10.70;99.90;;;;;;5058150;28;20072;-58
2022/10/02 03:13:40;;;;;;;17.08;3.50;;;11.70;99.90;;;;;;5058853;28;20037;-56
2022/10/02 03:16:26;;;;;;;15.30;2.90;;;10.50;99.90;;;;;;5060271;28;20181;-57
2022/10/02 03:19:20;;;;;;;15.25;3.05;;;11.60;99.90;;;;;;5061926;28;20041;-59
2022/10/02 03:22:35;;;;;;;15.57;3.13;;;11.30;99.90;;;;;;5062622;28;20113;-58
2022/10/02 03:25:06;;;;;;;16.55;3.00;;;11.80;99.90;;;;;;5057498;28;20061;-58
2022/10/02 03:27:47;;;;;;;20.40;3.28;;;10.70;99.90;;;;;;5061697;28;20044;-58
2022/10/02 03:30:19;;;;;;;21.90;2.95;;;10.70;99.90;;;;;;5062536;28;20045;-59
2022/10/02 03:32:45;;;;;;;16.50;2.90;;;10.90;99.90;;;;;;5062049;28;20134;-58
2022/10/02 03:35:13;;;;;;;19.30;3.03;;;11.40;99.90;;;;;;5061858;28;20045;-58
2022/10/02 03:37:42;;;;;;;15.55;3.03;;;10.70;99.90;;;;;;5062331;28;20056;-58
2022/10/02 03:40:09;;;;;;;18.67;4.25;;;11.60;99.90;;;;;;5068514;28;20032;-58
2022/10/02 03:42:35;;;;;;;15.80;3.20;;;10.70;99.90;;;;;;5082312;28;20033;-58
2022/10/02 03:45:02;;;;;;;17.63;3.17;;;10.80;99.90;;;;;;5081455;28;20052;-58
2022/10/02 03:47:28;;;;;;;17.60;2.78;;;11.00;99.90;;;;;;5082218;28;20052;-58
2022/10/02 03:49:53;;;;;;;16.55;2.90;;;11.80;99.90;;;;;;5081799;28;20045;-58
2022/10/02 03:52:21;;;;;;;19.30;3.75;;;11.80;99.90;;;;;;5081523;28;20041;-58
2022/10/02 03:54:49;;;;;;;18.35;2.40;;;11.50;99.90;;;;;;5080723;28;20507;-58
2022/10/02 03:57:21;;;;;;;14.23;2.80;;;11.50;99.90;;;;;;5081103;28;20045;-59
2022/10/02 04:00:03;;;;;;;16.55;2.70;;;11.50;99.90;;;;;;5070528;28;20167;-58
2022/10/02 04:02:54;;;;;;;19.40;2.67;;;11.40;99.90;;;;;;5061309;28;20048;-58
2022/10/02 04:05:32;;;;;;;18.58;2.92;;;11.00;99.90;;;;;;5061051;28;20096;-59
2022/10/02 04:08:08;;;;;;;16.05;3.13;;;11.60;99.90;;;;;;5061781;28;20509;-58
2022/10/02 04:10:59;;;;;;;16.95;2.88;;;10.90;99.90;;;;;;5060849;28;20104;-63
2022/10/02 04:13:43;;;;;;;23.95;4.05;;;11.60;99.90;;;;;;5060110;28;20057;-58
2022/10/02 04:16:12;;;;;;;15.65;2.45;;;11.20;99.90;;;;;;5061640;28;20576;-58
2022/10/02 04:19:02;;;;;;;17.40;2.95;;;10.80;99.90;;;;;;5060498;28;20592;-58
2022/10/02 04:21:33;;;;;;;17.67;3.17;;;11.60;99.90;;;;;;5061505;28;20037;-58
2022/10/02 04:24:27;;;;;;;15.48;2.70;;;11.00;99.90;;;;;;5060879;28;20044;-57
2022/10/02 04:27:08;;;;;;;14.70;2.30;;;11.50;99.90;;;;;;5060083;28;20060;-59
2022/10/02 04:29:58;;;;;;;16.90;2.47;;;11.50;99.90;;;;;;5061172;28;20536;-58
2022/10/02 04:32:28;;;;;;;17.35;2.72;;;11.50;99.90;;;;;;5060573;28;20049;-59
2022/10/02 04:34:54;;;;;;;16.73;2.55;;;11.10;99.90;;;;;;5061222;28;20033;-58
2022/10/02 04:37:46;;;;;;;13.23;2.15;;;11.40;99.90;;;;;;5059462;28;20473;-58
2022/10/02 04:40:30;;;;;;;16.02;2.65;;;11.30;99.90;;;;;;5068288;28;20040;-58
2022/10/02 04:42:56;;;;;;;15.93;2.65;;;11.40;99.90;;;;;;5081173;28;20117;-58
2022/10/02 04:45:47;;;;;;;18.17;2.97;;;10.70;99.90;;;;;;5080531;28;20547;-58
2022/10/02 04:48:34;;;;;;;23.73;2.72;;;10.80;99.90;;;;;;5080387;28;20508;-58
2022/10/02 04:51:03;;;;;;;11.80;2.20;;;10.40;99.90;;;;;;5080807;28;20079;-58
2022/10/02 04:54:15;;;;;;;17.60;2.97;;;10.50;99.90;;;;;;5080185;28;20044;-58
2022/10/02 04:57:02;;;;;;;17.27;2.70;;;10.60;99.90;;;;;;5080192;28;20052;-56
2022/10/02 04:59:36;;;;;;;17.30;2.05;;;10.40;99.90;;;;;;5072010;28;20290;-58
2022/10/02 05:02:33;;;;;;;14.48;3.13;;;11.20;99.90;;;;;;5059977;28;20080;-59
2022/10/02 05:05:08;;;;;;;19.73;3.25;;;10.40;99.90;;;;;;5060209;28;20072;-58
2022/10/02 05:07:33;;;;;;;17.92;2.78;;;10.40;99.90;;;;;;5060481;28;20044;-58
2022/10/02 05:10:17;;;;;;;14.02;2.33;;;11.10;99.90;;;;;;5059494;28;20052;-58
2022/10/02 05:12:43;;;;;;;21.45;2.92;;;10.30;99.90;;;;;;5060406;28;20049;-58
2022/10/02 05:15:25;;;;;;;19.45;3.35;;;10.90;99.90;;;;;;5059866;28;20044;-58
2022/10/02 05:17:57;;;;;;;;;;;10.30;99.90;;;;;;5060682;28;20060;-59
2022/10/02 05:20:29;;;;;;;12.68;2.40;;;10.70;99.90;;;;;;5060455;28;19924;-58
2022/10/02 05:23:24;;;;;;;21.23;4.05;;;11.10;99.90;;;;;;5059471;28;20236;-59
2022/10/02 05:26:13;;;;;;;15.43;2.90;;;11.00;99.90;;;;;;5057020;28;20052;-59
2022/10/02 05:29:20;;;;;;;15.75;2.67;;;10.40;99.90;;;;;;5060190;28;20507;-58
2022/10/02 05:31:54;;;;;;;16.60;2.55;;;10.50;99.90;;;;;;5059712;28;20818;-59
2022/10/02 05:34:30;;;;;;;21.73;4.05;;;10.30;99.90;;;;;;5058761;28;20041;-59
2022/10/02 05:37:12;;;;;;;17.40;2.53;;;10.80;99.90;;;;;;5059429;28;20067;-58
2022/10/02 05:39:53;;;;;;;20.50;4.30;;;10.30;99.90;;;;;;5062549;28;20135;-59
2022/10/02 05:42:31;;;;;;;19.17;2.57;;;10.70;99.90;;;;;;5080115;28;20155;-58
2022/10/02 05:45:13;;;;;;;19.88;3.47;;;10.60;99.90;;;;;;5079121;28;20075;-58
2022/10/02 05:47:44;;;;;;;26.25;3.05;;;10.70;99.90;;;;;;5079741;28;20071;-58
2022/10/02 05:50:23;;;;;;;15.35;2.92;;;10.20;99.90;;;;;;5079578;28;20056;-58
2022/10/02 05:53:07;;;;;;;18.23;3.80;;;10.20;99.90;;;;;;5077585;28;20044;-59
2022/10/02 05:55:36;;;;;;;16.17;2.47;;;10.20;99.90;;;;;;5079580;28;20045;-58
2022/10/02 05:58:10;;;;;;;20.27;2.97;;;10.20;99.90;;;;;;5079233;28;20071;-58
2022/10/02 06:00:46;;;;;;;18.05;2.42;;;10.20;99.90;;;;;;5061180;28;20057;-58
2022/10/02 06:03:30;;;;;;;16.27;2.60;;;10.70;99.90;;;;;;5059585;28;20047;-58
2022/10/02 06:06:05;;;;;;;18.95;3.05;;;10.80;99.90;;;;;;5055289;28;20080;-58
2022/10/02 06:08:42;;;;;;;15.98;2.50;;;10.80;99.90;;;;;;5055933;28;20049;-58
2022/10/02 06:11:22;;;;;;;15.50;2.60;;;10.30;99.90;;;;;;5054902;28;20045;-58
2022/10/02 06:14:05;;;;;;;18.55;3.75;;;10.90;99.90;;;;;;5063169;28;20109;-58
2022/10/02 06:16:44;;;;;;;24.27;3.30;;;10.90;99.90;;;;;;5073036;28;20040;-58
2022/10/02 06:19:21;;;;;;;17.90;2.70;;;10.30;99.90;;;;;;5074700;28;20158;-58
2022/10/02 06:21:49;;;;;;;21.35;4.20;;;10.50;99.90;;;;;;5057559;28;20914;-58
2022/10/02 06:24:26;;;;;;;19.20;2.60;;;10.40;99.90;;;;;;5075201;28;20049;-58
2022/10/02 06:27:03;;;;;;;16.52;2.50;;;10.70;99.90;;;;;;5066726;28;20106;-59
2022/10/02 06:29:39;;;;;;;15.10;2.50;;;10.60;99.90;;;;;;5063959;28;20068;-58
2022/10/02 06:32:32;;;;;;;19.95;2.55;;;10.90;99.90;;;;;;5063312;28;20037;-58
2022/10/02 06:34:57;;;;;;;16.55;2.58;;;11.20;99.90;;;;;;5065345;28;20080;-58
2022/10/02 06:38:02;;;;;;;20.23;2.97;;;10.70;99.90;;;;;;5066288;28;20111;-58
2022/10/02 06:40:50;;;;;;;14.60;2.50;;;11.10;99.90;;;;;;5073740;28;20113;-58
2022/10/02 06:43:43;;;;;;;17.17;2.58;;;11.40;99.90;;;;;;5062272;28;20048;-58
2022/10/02 06:46:40;;;;;;;22.63;3.20;;;11.00;99.90;;;;;;5069318;28;20044;-58
2022/10/02 06:49:30;;;;;;;16.50;2.83;;;11.60;99.90;;;;;;5074241;28;20051;-58
2022/10/02 06:52:01;;;;;;;14.35;2.50;;;11.70;99.90;;;;;;5077479;28;20048;-58
2022/10/02 06:55:16;;;;;;;12.75;2.25;;;11.30;99.90;;;;;;5077592;28;20493;-57
2022/10/02 06:57:55;;;;;;;16.92;2.45;;;11.50;99.90;;;;;;5078756;28;20048;-58
2022/10/02 07:00:21;;;;;;;20.48;2.67;;;11.60;99.90;;;;;;5063094;28;20056;-58
2022/10/02 07:03:17;;;;;;;19.48;3.05;;;11.60;99.90;;;;;;5058981;28;20045;-58
2022/10/02 07:06:00;;;;;;;17.65;2.95;;;12.00;99.90;;;;;;5056729;28;20073;-58
2022/10/02 07:09:10;;;;;;;21.58;3.60;;;11.60;99.90;;;;;;5059008;28;20076;-58
2022/10/02 07:12:16;;;;;;;16.35;2.33;;;12.20;99.90;;;;;;5057888;28;20070;-57
2022/10/02 07:15:24;;;;;;;15.70;3.47;;;11.60;99.90;;;;;;5064713;28;20111;-58
2022/10/02 07:17:52;;;;;;;14.40;2.83;;;11.60;99.90;;;;;;5058506;28;20037;-58
2022/10/02 07:20:28;;;;;;;13.60;3.00;;;12.10;99.90;;;;;;5058813;28;20121;-58
2022/10/02 07:23:35;;;;;;;19.42;3.88;;;11.50;99.90;;;;;;5057447;28;20119;-58
2022/10/02 07:26:36;;;;;;;14.35;2.47;;;12.20;99.90;;;;;;5066854;28;20085;-58
2022/10/02 07:29:40;;;;;;;18.70;3.00;;;12.20;99.90;;;;;;5067035;28;20059;-58
2022/10/02 07:32:20;;;;;;;19.20;2.63;;;12.50;99.90;;;;;;5045212;28;20065;-58
2022/10/02 07:35:04;;;;;;;17.85;2.58;;;12.10;99.90;;;;;;5066283;28;20044;-58
2022/10/02 07:37:35;;;;;;;18.33;2.40;;;12.40;99.90;;;;;;5065825;28;20063;-58
2022/10/02 07:40:23;;;;;;;14.82;2.65;;;12.50;99.90;;;;;;5067096;28;20102;-58
2022/10/02 07:42:51;;;;;;;16.83;2.80;;;12.60;99.90;;;;;;5072522;28;20045;-58
2022/10/02 07:45:32;;;;;;;16.25;2.60;;;12.10;99.90;;;;;;5077598;28;20126;-58
2022/10/02 07:48:17;;;;;;;17.40;3.20;;;12.00;99.90;;;;;;5077691;28;20735;-58
2022/10/02 07:50:54;;;;;;;15.27;2.53;;;12.60;99.90;;;;;;5078447;28;20102;-58
2022/10/02 07:53:37;;;;;;;12.32;2.83;;;12.40;99.90;;;;;;5077134;28;20408;-58
2022/10/02 07:56:18;;;;;;;14.93;3.10;;;12.20;99.90;;;;;;5078287;28;20127;-58
2022/10/02 07:58:51;;;;;;;13.95;2.47;;;12.10;99.90;;;;;;5077996;28;20044;-58
2022/10/02 08:01:24;;;;;;;12.40;2.45;;;12.40;99.90;;;;;;5076580;28;20059;-58
2022/10/02 08:04:11;;;;;;;10.65;2.38;;;12.50;99.90;;;;;;5077911;28;20056;-58
2022/10/02 08:06:37;;;;;;;14.95;2.67;;;12.30;99.90;;;;;;5077239;28;20041;-58
2022/10/02 08:09:26;;;;;;;14.02;2.00;;;12.90;99.90;;;;;;5076615;28;20047;-58
2022/10/02 08:11:57;;;;;;;8.90;2.15;;;12.90;99.90;;;;;;5074126;28;20048;-58
2022/10/02 08:14:39;;;;;;;11.70;2.10;;;12.40;99.90;;;;;;5072955;28;20036;-58
2022/10/02 08:17:13;;;;;;;10.50;1.98;;;12.40;99.90;;;;;;5066794;28;20647;-58
2022/10/02 08:19:44;;;;;;;14.15;3.13;;;12.70;99.90;;;;;;5067968;28;20571;-57
2022/10/02 08:22:25;;;;;;;12.20;2.10;;;12.80;99.90;;;;;;5075964;28;20376;-57
2022/10/02 08:25:06;;;;;;;11.02;3.00;;;12.70;99.90;;;;;;5077395;28;20044;-58
2022/10/02 08:27:49;;;;;;;13.55;2.50;;;12.40;99.90;;;;;;5076896;28;20040;-59
2022/10/02 08:30:14;;;;;;;;;;;12.30;99.90;;;;;;5078000;28;20076;-59
2022/10/02 08:32:40;;;;;;;15.02;2.28;;;12.60;99.90;;;;;;5076888;28;19920;-57
2022/10/02 08:35:18;;;;;;;12.02;2.30;;;12.80;99.90;;;;;;5076893;28;20074;-58
2022/10/02 08:38:22;;;;;;;20.15;3.00;;;12.90;99.90;;;;;;5076947;28;20080;-58
2022/10/02 08:41:14;;;;;;;17.17;3.40;;;12.30;99.90;;;;;;5076439;28;20464;-58
2022/10/02 08:43:59;;;;;;;14.65;2.20;;;12.30;99.90;;;;;;5076809;28;20092;-62
2022/10/02 08:46:57;;;;;;;9.90;2.08;;;12.40;99.90;;;;;;5072208;28;20059;-64
2022/10/02 08:49:44;;;;;;;12.75;2.50;;;12.80;99.90;;;;;;5061057;28;20341;-62
2022/10/02 08:52:24;;;;;;;10.77;1.90;;;12.30;99.90;;;;;;5056504;28;20055;-61
2022/10/02 08:55:02;;;;;;;15.20;2.40;;;12.70;99.90;;;;;;5063335;28;20052;-60
2022/10/02 08:57:36;;;;;;;9.65;2.20;;;12.70;99.90;;;;;;5060746;28;20044;-61
2022/10/02 09:00:23;;;;;;;14.32;2.97;;;12.30;99.90;;;;;;5067317;28;20048;-59
2022/10/02 09:03:09;;;;;;;12.48;2.58;;;12.90;99.90;;;;;;5070595;28;20048;-61
2022/10/02 09:05:59;;;;;;;11.73;2.20;;;12.70;99.90;;;;;;5054888;28;20452;-60
2022/10/02 09:08:27;;;;;;;12.18;2.30;;;12.40;99.90;;;;;;5072100;28;20074;-60
2022/10/02 09:11:05;;;;;;;11.63;2.50;;;12.40;99.90;;;;;;5075869;28;20425;-59
2022/10/02 09:13:46;;;;;;;10.77;2.65;;;12.60;99.90;;;;;;5074730;28;20053;-60
2022/10/02 09:16:37;;;;;;;10.60;2.60;;;12.70;99.90;;;;;;5076933;28;20096;-60
2022/10/02 09:19:08;;;;;;;12.35;2.53;;;13.30;99.90;;;;;;5061928;28;20108;-59
2022/10/02 09:21:54;;;;;;;13.05;3.10;;;13.30;99.90;;;;;;5064166;28;20609;-59
2022/10/02 09:24:49;;;;;;;17.23;3.63;;;13.80;99.90;;;;;;5066479;28;20033;-59
2022/10/02 09:27:37;;;;;;;14.52;2.95;;;13.40;99.90;;;;;;5061394;28;20569;-59
2022/10/02 09:30:29;;;;;;;14.77;2.95;;;14.00;99.90;;;;;;5055974;28;20059;-59
2022/10/02 09:33:38;;;;;;;18.60;2.35;;;13.60;99.90;;;;;;5056029;28;20044;-58
2022/10/02 09:36:29;;;;;;;19.35;4.03;;;13.70;99.90;;;;;;5055767;28;20063;-58
2022/10/02 09:39:23;;;;;;;19.55;2.65;;;13.80;99.90;;;;;;5054549;28;20052;-58
2022/10/02 09:42:27;;;;;;;15.75;2.72;;;14.20;99.90;;;;;;5056614;28;20049;-58
2022/10/02 09:45:14;;;;;;;16.48;2.67;;;14.50;99.90;;;;;;5055350;28;20083;-58
2022/10/02 09:48:09;;;;;;;17.17;3.90;;;14.20;99.90;;;;;;5038179;28;20370;-59
2022/10/02 09:51:05;;;;;;;14.90;2.72;;;14.60;99.90;;;;;;5056205;28;20079;-58
2022/10/02 09:53:49;;;;;;;19.63;2.92;;;14.40;99.90;;;;;;5055143;28;20060;-58
2022/10/02 09:56:23;;;;;;;17.63;3.15;;;14.40;99.90;;;;;;5056723;28;20120;-59
2022/10/02 09:59:16;;;;;;;17.55;2.42;;;14.90;99.90;;;;;;5061520;28;20060;-59
2022/10/02 10:01:43;;;;;;;14.75;2.50;;;14.60;99.90;;;;;;5076939;28;20056;-60
2022/10/02 10:04:18;;;;;;;15.82;2.53;;;14.90;99.90;;;;;;5079104;28;20120;-59
2022/10/02 10:06:58;;;;;;;12.50;2.28;;;14.70;99.90;;;;;;5077174;28;20055;-59
2022/10/02 10:09:33;;;;;;;17.23;2.42;;;14.70;99.90;;;;;;5077556;28;20048;-59
2022/10/02 10:12:27;;;;;;;15.60;2.63;;;14.60;99.90;;;;;;5078637;28;20079;-59
2022/10/02 10:15:28;;;;;;;21.52;3.25;;;14.70;99.90;;;;;;5078323;28;20456;-59
2022/10/02 10:18:25;;;;;;;13.10;2.40;;;14.80;99.90;;;;;;5075092;28;20416;-59
2022/10/02 10:21:02;;;;;;;13.60;2.17;;;14.70;99.90;;;;;;5069816;28;20061;-59
2022/10/02 10:23:35;;;;;;;12.77;2.53;;;14.70;99.90;;;;;;5077617;28;20040;-59
2022/10/02 10:26:33;;;;;;;14.35;2.90;;;15.00;99.90;;;;;;5078234;28;20048;-59
2022/10/02 10:29:20;;;;;;;16.48;2.90;;;15.30;99.90;;;;;;5055576;28;20106;-58
2022/10/02 10:32:14;;;;;;;19.10;3.35;;;15.60;99.90;;;;;;5078415;28;20048;-59
2022/10/02 10:34:54;;;;;;;15.65;2.47;;;15.60;99.90;;;;;;5077312;28;20044;-59
2022/10/02 10:40:23;;;;;;;;;;;15.80;99.90;;;;;;5077516;28;20048;-59
2022/10/02 10:43:10;;;;;;;24.67;3.85;;;15.50;99.90;;;;;;5079008;28;20406;-59
2022/10/02 10:45:57;;;;;;;14.95;2.67;;;15.60;99.90;;;;;;5078724;28;20051;-59
2022/10/02 10:48:47;;;;;;;13.30;2.47;;;15.80;99.90;;;;;;5078158;28;20415;-59
2022/10/02 10:51:39;;;;;;;14.68;2.75;;;16.10;99.90;;;;;;5079140;28;20047;-60
2022/10/02 10:54:21;;;;;;;9.82;2.35;;;16.10;99.90;;;;;;5078580;28;20124;-59
2022/10/02 10:56:49;;;;;;;17.10;2.45;;;15.80;99.90;;;;;;5078099;28;20135;-59
2022/10/02 10:59:40;;;;;;;13.07;2.38;;;15.90;99.90;;;;;;5078702;28;20040;-59
2022/10/02 11:03:03;;;;;;;14.52;2.13;;;16.00;99.90;;;;;;5078163;28;20049;-59
2022/10/02 11:05:35;;;;;;;;;;;16.10;99.90;;;;;;5055478;28;20049;-59
2022/10/02 11:08:34;;;;;;;16.17;2.73;;;15.90;99.90;;;;;;5055813;28;19921;-59
2022/10/02 11:11:15;;;;;;;16.67;2.78;;;15.50;99.90;;;;;;5074583;28;20056;-59
2022/10/02 11:13:47;;;;;;;19.10;3.92;;;15.40;99.90;;;;;;5077871;28;20076;-59
2022/10/02 11:16:45;;;;;;;16.33;2.25;;;15.40;99.90;;;;;;5078904;28;20044;-59
2022/10/02 11:19:35;;;;;;;14.25;2.42;;;15.40;99.90;;;;;;5077144;28;20044;-59
2022/10/02 11:22:21;;;;;;;11.77;1.73;;;15.70;99.90;;;;;;5077361;28;20554;-59
2022/10/02 11:25:09;;;;;;;14.13;2.60;;;15.90;99.90;;;;;;5078202;28;20094;-59
2022/10/02 11:28:12;;;;;;;11.02;2.15;;;16.20;99.90;;;;;;5077737;28;20071;-59
2022/10/02 11:30:48;;;;;;;13.10;2.53;;;16.10;99.90;;;;;;5077926;28;20060;-59
2022/10/02 11:34:00;;;;;;;12.50;2.42;;;15.60;99.90;;;;;;5078683;28;20036;-59
2022/10/02 11:37:04;;;;;;;15.02;2.63;;;15.80;99.90;;;;;;5076533;28;20147;-59
2022/10/02 11:39:54;;;;;;;14.23;2.40;;;15.90;99.90;;;;;;5070450;28;20057;-59
2022/10/02 11:42:38;;;;;;;15.27;2.30;;;15.50;99.90;;;;;;5072993;28;20044;-59
2022/10/02 11:45:36;;;;;;;15.63;2.45;;;15.20;99.90;;;;;;5070817;28;20035;-59
2022/10/02 11:48:20;;;;;;;16.67;2.03;;;14.90;99.90;;;;;;5068756;28;20037;-59
2022/10/02 11:51:16;;;;;;;15.13;2.45;;;15.00;99.90;;;;;;5070630;28;20041;-59
2022/10/02 11:53:54;;;;;;;12.57;2.85;;;15.30;99.90;;;;;;5059495;28;20068;-58
2022/10/02 11:56:55;;;;;;;12.52;2.08;;;15.60;99.90;;;;;;5068921;28;20052;-59
2022/10/02 11:59:32;;;;;;;16.38;2.65;;;15.40;99.90;;;;;;5061112;28;20123;-58
2022/10/02 12:02:22;;;;;;;14.15;2.15;;;15.10;99.90;;;;;;5077490;28;20052;-59
2022/10/02 12:05:22;;;;;;;11.43;2.38;;;15.00;99.90;;;;;;5068858;28;20067;-59
2022/10/02 12:08:13;;;;;;;17.15;3.10;;;14.80;99.90;;;;;;5067559;28;20040;-59
2022/10/02 12:10:48;;;;;;;19.83;3.30;;;14.80;99.90;;;;;;5067102;28;20056;-59
2022/10/02 12:13:32;;;;;;;17.27;2.97;;;14.80;99.90;;;;;;5075673;28;20179;-59
2022/10/02 12:16:08;;;;;;;14.45;2.33;;;15.00;99.90;;;;;;5077878;28;20043;-59
2022/10/02 12:18:47;;;;;;;12.63;1.92;;;15.00;99.90;;;;;;5076732;28;20097;-59
2022/10/02 12:27:26;;;;;;;12.65;2.38;;;14.80;99.90;;;;;;5076515;28;20058;-59
2022/10/02 12:30:05;;;;;;;9.90;1.98;;;14.90;99.90;;;;;;5077674;28;20428;-59
2022/10/02 12:33:02;;;;;;;16.00;2.30;;;14.90;99.90;;;;;;5077123;28;20040;-59
2022/10/02 12:36:07;;;;;;;16.98;3.17;;;14.80;99.90;;;;;;5076025;28;20044;-59
2022/10/02 12:38:51;;;;;;;16.73;2.15;;;14.70;99.90;;;;;;5077382;28;20063;-60
2022/10/02 12:41:35;;;;;;;11.95;2.15;;;14.70;99.90;;;;;;5076852;28;20052;-59
2022/10/02 12:44:12;;;;;;;11.90;2.30;;;14.80;99.90;;;;;;5076167;28;20066;-59
2022/10/02 12:47:14;;;;;;;16.95;3.88;;;15.00;99.90;;;;;;5076382;28;20048;-60
2022/10/02 12:49:58;;;;;;;13.18;3.40;;;15.30;99.90;;;;;;5075888;28;20045;-59
2022/10/02 12:52:38;;;;;;;15.10;2.40;;;15.60;99.90;;;;;;5071693;28;20037;-58
2022/10/02 12:55:24;;;;;;;14.73;2.80;;;15.70;99.90;;;;;;5067153;28;20037;-59
2022/10/02 12:58:12;;;;;;;13.20;2.08;;;15.70;99.90;;;;;;5066157;28;20056;-59
2022/10/02 13:00:49;;;;;;;18.88;3.30;;;15.40;99.90;;;;;;5058756;28;20056;-59
2022/10/02 13:03:42;;;;;;;16.83;2.90;;;15.50;99.90;;;;;;5056372;28;20041;-59
2022/10/02 13:06:36;;;;;;;13.13;2.35;;;15.50;99.90;;;;;;5056144;28;20045;-59
2022/10/02 13:09:09;;;;;;;14.63;2.10;;;15.70;99.90;;;;;;5056111;28;20051;-59
2022/10/02 13:12:00;;;;;;;15.05;2.95;;;15.90;99.90;;;;;;5038101;28;20075;-59
2022/10/02 13:14:47;;;;;;;12.70;2.10;;;15.90;99.90;;;;;;5055992;28;20112;-58
2022/10/02 13:17:37;;;;;;;13.40;2.45;;;15.90;99.90;;;;;;5056303;28;20161;-59
2022/10/02 13:20:36;;;;;;;15.63;2.30;;;16.00;99.90;;;;;;5056571;28;20065;-59
2022/10/02 13:23:20;;;;;;;14.23;3.10;;;16.10;99.90;;;;;;5055459;28;20583;-59
2022/10/02 13:26:07;;;;;;;10.75;2.03;;;15.70;99.90;;;;;;5057145;28;20434;-59
2022/10/02 13:29:05;;;;;;;13.10;2.72;;;15.70;99.90;;;;;;5064427;28;20052;-59
2022/10/02 13:31:35;;;;;;;11.82;1.90;;;15.80;99.90;;;;;;5068675;28;20045;-59
2022/10/02 13:34:26;;;;;;;13.82;2.10;;;15.90;99.90;;;;;;5062462;28;20049;-59
2022/10/02 13:36:59;;;;;;;15.95;2.70;;;15.90;99.90;;;;;;5071328;28;20064;-58
2022/10/02 13:39:51;;;;;;;18.20;2.85;;;15.80;99.90;;;;;;5056941;28;20461;-58
2022/10/02 13:42:19;;;;;;;16.90;4.38;;;15.40;99.90;;;;;;5075079;28;20044;-59
2022/10/02 13:45:13;;;;;;;12.73;1.90;;;15.30;99.90;;;;;;5075396;28;20048;-58
2022/10/02 13:48:05;;;;;;;16.48;4.18;;;15.30;99.90;;;;;;5072588;28;20275;-59
2022/10/02 13:51:07;;;;;;;17.73;2.25;;;15.30;99.90;;;;;;5066530;28;20045;-59
2022/10/02 13:54:14;;;;;;;17.83;3.00;;;15.20;99.90;;;;;;5063342;28;20435;-59
2022/10/02 13:56:55;;;;;;;15.00;2.45;;;15.10;99.90;;;;;;5063817;28;20059;-59
2022/10/02 13:59:49;;;;;;;17.08;3.10;;;15.20;99.90;;;;;;5073756;28;20044;-59
2022/10/02 14:02:15;;;;;;;13.55;2.58;;;15.10;99.90;;;;;;5074970;28;20136;-59
2022/10/02 14:05:10;;;;;;;21.02;3.42;;;14.90;99.90;;;;;;5075901;28;20323;-59